Wartburg, TN

3:42 PM EDT on August 30, 2015 (GMT -0400)
Rockwood, TN | | Change Station
CLOSE
Current Station
Personal Weather Station
Location: Rockwood, TN
Elevation: 988 ft
Nearby Weather Stations

Elev 988 ft 35.87 °N, 84.66 °W | Updated 5 minutes ago

Mostly Cloudy
Mostly Cloudy
80.6 °F
Feels Like 84 °F
N
2.0
Wind Variable Wind from West
Gusts 3.0 mph

Today
High -- | Low -- °F
--% Chance of Precip.
Yesterday
High -- | Low -- °F
Precip. -- in
7:08 AM 8:09 PM
Full, 98% visible
Pressure 30.10 in
Visibility 10.0 miles
Clouds Few 3000 ft
Heat Index 84 °F
Dew Point 69 °F
Humidity 67%
Rainfall 0.00 in
Snow Depth Not available.
UV 9 out of 12
Pollen 8.00 out of 12
Air Quality Not available.
Flu Activity Not available.
METAR KOQT 301853Z AUTO VRB03KT 10SM FEW030 27/18 A3014 RMK AO2 SLP191 T02670183
Pressure 30.10 in
Visibility 10.0 miles
Clouds Few 3000 ft
Heat Index 84 °F
Dew Point 69 °F
Humidity 67%
Rainfall 0.00 in
Snow Depth Not available.
UV 9 out of 12
Pollen 8.00 out of 12
Air Quality Not available.
Flu Activity Not available.
METAR KOQT 301853Z AUTO VRB03KT 10SM FEW030 27/18 A3014 RMK AO2 SLP191 T02670183

10-Day Weather Forecast

×

Almanac

Astronomy

Aug. 30, 2015 Rise Set
Actual Time
Civil Twilight
Nautical Twilight
Astronomical Twilight
Moon
Length of Visible Light
Length of Day
Tomorrow will be .
, % of the Moon is Illuminated

Today's Extremes

State Highs State Lows

Community

WunderPhotos

Upload Photos

1,851,041 photos uploaded!

WunderBlogs® & News

Nearby

Air Quality

  Air Quality AQ Index Pollutant
Not available.

Snow Depth

Station Depth Elevation

Earthquake Activity

City Distance Mag. Time & Date
Minimum magnitude displayed is 2.5.

Coastal Water Temperatures

Place Temperature

Stations

Nearby Weather Stations

Station Location Temp. Windchill Dew Point Humidity Wind Precip. Elev Updated Type